sensor_id;sensor_type;location;lat;lon;timestamp;P1;durP1;ratioP1;P2;durP2;ratioP2
249;SDS011;109;19.806;-70.704;2022-12-05T00:00:57;39.77;;;5.33;;
249;SDS011;109;19.806;-70.704;2022-12-05T00:03:25;55.47;;;6.43;;
249;SDS011;109;19.806;-70.704;2022-12-05T00:05:51;34.63;;;6.10;;
249;SDS011;109;19.806;-70.704;2022-12-05T00:08:18;24.00;;;3.60;;
249;SDS011;109;19.806;-70.704;2022-12-05T00:10:44;17.70;;;3.93;;
249;SDS011;109;19.806;-70.704;2022-12-05T00:13:10;33.90;;;4.10;;
249;SDS011;109;19.806;-70.704;2022-12-05T00:15:39;30.93;;;4.03;;
249;SDS011;109;19.806;-70.704;2022-12-05T00:18:06;25.67;;;4.40;;
249;SDS011;109;19.806;-70.704;2022-12-05T00:20:32;52.37;;;6.80;;
249;SDS011;109;19.806;-70.704;2022-12-05T00:22:59;26.00;;;5.20;;
249;SDS011;109;19.806;-70.704;2022-12-05T00:25:26;52.47;;;5.07;;
249;SDS011;109;19.806;-70.704;2022-12-05T00:27:53;27.77;;;4.27;;
249;SDS011;109;19.806;-70.704;2022-12-05T00:30:19;31.57;;;4.83;;
249;SDS011;109;19.806;-70.704;2022-12-05T00:32:46;29.23;;;4.60;;
249;SDS011;109;19.806;-70.704;2022-12-05T00:35:12;17.30;;;4.13;;
249;SDS011;109;19.806;-70.704;2022-12-05T00:37:39;29.87;;;4.13;;
249;SDS011;109;19.806;-70.704;2022-12-05T00:40:05;22.93;;;4.63;;
249;SDS011;109;19.806;-70.704;2022-12-05T00:42:32;28.17;;;4.23;;
249;SDS011;109;19.806;-70.704;2022-12-05T00:44:59;19.73;;;3.47;;
249;SDS011;109;19.806;-70.704;2022-12-05T00:47:25;17.83;;;3.20;;
249;SDS011;109;19.806;-70.704;2022-12-05T00:49:52;24.83;;;5.00;;
249;SDS011;109;19.806;-70.704;2022-12-05T00:52:25;20.33;;;3.97;;
249;SDS011;109;19.806;-70.704;2022-12-05T00:54:51;11.70;;;3.60;;
249;SDS011;109;19.806;-70.704;2022-12-05T00:57:25;14.60;;;3.43;;
249;SDS011;109;19.806;-70.704;2022-12-05T00:59:51;20.60;;;3.63;;
249;SDS011;109;19.806;-70.704;2022-12-05T01:02:25;11.47;;;3.13;;
249;SDS011;109;19.806;-70.704;2022-12-05T01:05:13;10.57;;;3.10;;
249;SDS011;109;19.806;-70.704;2022-12-05T01:07:53;8.70;;;3.27;;
249;SDS011;109;19.806;-70.704;2022-12-05T01:10:19;11.20;;;3.20;;
249;SDS011;109;19.806;-70.704;2022-12-05T01:12:59;8.13;;;3.43;;
249;SDS011;109;19.806;-70.704;2022-12-05T01:15:34;17.73;;;3.47;;
249;SDS011;109;19.806;-70.704;2022-12-05T01:18:15;10.23;;;3.50;;
249;SDS011;109;19.806;-70.704;2022-12-05T01:20:42;13.13;;;4.10;;
249;SDS011;109;19.806;-70.704;2022-12-05T01:23:23;10.60;;;3.30;;
249;SDS011;109;19.806;-70.704;2022-12-05T01:25:50;7.60;;;3.20;;
249;SDS011;109;19.806;-70.704;2022-12-05T01:28:30;13.53;;;3.40;;
249;SDS011;109;19.806;-70.704;2022-12-05T01:30:56;5.70;;;2.70;;
249;SDS011;109;19.806;-70.704;2022-12-05T01:33:36;11.17;;;3.30;;
249;SDS011;109;19.806;-70.704;2022-12-05T01:36:02;11.87;;;3.63;;
249;SDS011;109;19.806;-70.704;2022-12-05T01:38:44;8.33;;;3.50;;
249;SDS011;109;19.806;-70.704;2022-12-05T01:41:12;8.90;;;3.17;;
249;SDS011;109;19.806;-70.704;2022-12-05T01:46:36;14.40;;;3.60;;
249;SDS011;109;19.806;-70.704;2022-12-05T01:52:06;14.43;;;3.77;;
249;SDS011;109;19.806;-70.704;2022-12-05T01:54:55;14.10;;;3.37;;
249;SDS011;109;19.806;-70.704;2022-12-05T01:57:32;15.17;;;3.30;;
249;SDS011;109;19.806;-70.704;2022-12-05T02:00:13;20.10;;;3.43;;
249;SDS011;109;19.806;-70.704;2022-12-05T02:03:03;12.17;;;3.00;;
249;SDS011;109;19.806;-70.704;2022-12-05T02:05:47;9.10;;;3.43;;
249;SDS011;109;19.806;-70.704;2022-12-05T02:08:29;10.47;;;3.20;;
249;SDS011;109;19.806;-70.704;2022-12-05T02:11:02;11.30;;;2.90;;
249;SDS011;109;19.806;-70.704;2022-12-05T02:13:51;5.93;;;2.90;;
249;SDS011;109;19.806;-70.704;2022-12-05T02:16:41;11.43;;;3.17;;
249;SDS011;109;19.806;-70.704;2022-12-05T02:19:52;11.30;;;3.80;;
249;SDS011;109;19.806;-70.704;2022-12-05T02:22:53;9.87;;;3.20;;
249;SDS011;109;19.806;-70.704;2022-12-05T02:26:10;11.37;;;3.67;;
249;SDS011;109;19.806;-70.704;2022-12-05T02:29:25;7.47;;;4.50;;
249;SDS011;109;19.806;-70.704;2022-12-05T02:32:42;10.60;;;2.80;;
249;SDS011;109;19.806;-70.704;2022-12-05T02:42:12;8.60;;;2.97;;
249;SDS011;109;19.806;-70.704;2022-12-05T02:45:07;11.53;;;2.97;;
249;SDS011;109;19.806;-70.704;2022-12-05T02:47:51;7.13;;;3.10;;
249;SDS011;109;19.806;-70.704;2022-12-05T02:50:28;13.97;;;3.07;;
249;SDS011;109;19.806;-70.704;2022-12-05T02:53:12;8.83;;;4.00;;
249;SDS011;109;19.806;-70.704;2022-12-05T02:55:48;13.97;;;3.53;;
249;SDS011;109;19.806;-70.704;2022-12-05T02:58:33;9.07;;;3.10;;
249;SDS011;109;19.806;-70.704;2022-12-05T03:01:10;12.47;;;2.77;;
249;SDS011;109;19.806;-70.704;2022-12-05T03:03:58;12.93;;;3.40;;
249;SDS011;109;19.806;-70.704;2022-12-05T03:07:22;11.30;;;3.10;;
249;SDS011;109;19.806;-70.704;2022-12-05T03:10:04;14.47;;;3.90;;
249;SDS011;109;19.806;-70.704;2022-12-05T03:12:50;7.33;;;3.60;;
249;SDS011;109;19.806;-70.704;2022-12-05T03:15:29;11.23;;;3.87;;
249;SDS011;109;19.806;-70.704;2022-12-05T03:18:20;10.13;;;3.33;;
249;SDS011;109;19.806;-70.704;2022-12-05T03:20:59;10.40;;;3.60;;
249;SDS011;109;19.806;-70.704;2022-12-05T03:23:50;12.57;;;3.77;;
249;SDS011;109;19.806;-70.704;2022-12-05T03:29:18;15.60;;;4.07;;
249;SDS011;109;19.806;-70.704;2022-12-05T03:37:51;12.57;;;3.20;;
249;SDS011;109;19.806;-70.704;2022-12-05T03:43:37;9.03;;;3.00;;
249;SDS011;109;19.806;-70.704;2022-12-05T03:49:14;15.50;;;3.20;;
249;SDS011;109;19.806;-70.704;2022-12-05T03:52:02;12.37;;;3.53;;
249;SDS011;109;19.806;-70.704;2022-12-05T03:54:55;9.90;;;3.57;;
249;SDS011;109;19.806;-70.704;2022-12-05T03:57:36;12.23;;;3.03;;
249;SDS011;109;19.806;-70.704;2022-12-05T04:00:33;18.00;;;3.40;;
249;SDS011;109;19.806;-70.704;2022-12-05T04:03:29;20.50;;;3.50;;
249;SDS011;109;19.806;-70.704;2022-12-05T04:06:19;12.60;;;3.33;;
249;SDS011;109;19.806;-70.704;2022-12-05T04:09:10;13.47;;;3.07;;
249;SDS011;109;19.806;-70.704;2022-12-05T04:11:54;12.77;;;3.70;;
249;SDS011;109;19.806;-70.704;2022-12-05T04:14:40;19.73;;;4.13;;
249;SDS011;109;19.806;-70.704;2022-12-05T04:17:20;18.83;;;4.03;;
249;SDS011;109;19.806;-70.704;2022-12-05T04:20:30;22.83;;;3.90;;
249;SDS011;109;19.806;-70.704;2022-12-05T04:23:37;15.50;;;3.80;;
249;SDS011;109;19.806;-70.704;2022-12-05T04:29:27;14.73;;;3.20;;
249;SDS011;109;19.806;-70.704;2022-12-05T04:32:02;14.70;;;3.13;;
249;SDS011;109;19.806;-70.704;2022-12-05T04:34:47;7.00;;;3.03;;
249;SDS011;109;19.806;-70.704;2022-12-05T04:37:27;12.20;;;3.43;;
249;SDS011;109;19.806;-70.704;2022-12-05T04:40:26;10.70;;;2.87;;
249;SDS011;109;19.806;-70.704;2022-12-05T04:43:12;9.53;;;2.93;;
249;SDS011;109;19.806;-70.704;2022-12-05T04:45:41;10.23;;;2.80;;
249;SDS011;109;19.806;-70.704;2022-12-05T04:48:22;12.97;;;2.83;;
249;SDS011;109;19.806;-70.704;2022-12-05T04:50:59;7.83;;;2.60;;
249;SDS011;109;19.806;-70.704;2022-12-05T04:53:40;8.43;;;2.67;;
249;SDS011;109;19.806;-70.704;2022-12-05T04:56:08;10.90;;;2.93;;
249;SDS011;109;19.806;-70.704;2022-12-05T04:59:01;10.97;;;3.00;;
249;SDS011;109;19.806;-70.704;2022-12-05T05:04:41;15.50;;;3.13;;
249;SDS011;109;19.806;-70.704;2022-12-05T05:07:25;10.73;;;2.87;;
249;SDS011;109;19.806;-70.704;2022-12-05T05:10:05;16.73;;;2.90;;
249;SDS011;109;19.806;-70.704;2022-12-05T05:12:32;9.70;;;2.90;;
249;SDS011;109;19.806;-70.704;2022-12-05T05:15:13;13.33;;;3.20;;
249;SDS011;109;19.806;-70.704;2022-12-05T05:17:39;9.27;;;3.10;;
249;SDS011;109;19.806;-70.704;2022-12-05T05:20:19;13.60;;;3.33;;
249;SDS011;109;19.806;-70.704;2022-12-05T05:22:59;15.90;;;3.43;;
249;SDS011;109;19.806;-70.704;2022-12-05T05:25:25;13.53;;;3.00;;
249;SDS011;109;19.806;-70.704;2022-12-05T05:28:05;9.30;;;3.10;;
249;SDS011;109;19.806;-70.704;2022-12-05T05:30:31;11.87;;;2.50;;
249;SDS011;109;19.806;-70.704;2022-12-05T05:33:13;16.23;;;3.37;;
249;SDS011;109;19.806;-70.704;2022-12-05T05:35:40;11.33;;;3.23;;
249;SDS011;109;19.806;-70.704;2022-12-05T05:38:19;11.13;;;3.13;;
249;SDS011;109;19.806;-70.704;2022-12-05T05:40:45;10.47;;;2.60;;
249;SDS011;109;19.806;-70.704;2022-12-05T05:43:25;13.43;;;3.80;;
249;SDS011;109;19.806;-70.704;2022-12-05T05:45:51;7.97;;;2.93;;
249;SDS011;109;19.806;-70.704;2022-12-05T05:48:32;15.20;;;2.97;;
249;SDS011;109;19.806;-70.704;2022-12-05T05:50:59;6.53;;;2.70;;
249;SDS011;109;19.806;-70.704;2022-12-05T05:53:46;15.90;;;3.07;;
249;SDS011;109;19.806;-70.704;2022-12-05T05:56:19;9.30;;;3.00;;
249;SDS011;109;19.806;-70.704;2022-12-05T05:59:00;9.77;;;3.30;;
249;SDS011;109;19.806;-70.704;2022-12-05T06:01:28;8.87;;;2.77;;
249;SDS011;109;19.806;-70.704;2022-12-05T06:04:16;12.67;;;2.77;;
249;SDS011;109;19.806;-70.704;2022-12-05T06:06:56;9.00;;;3.03;;
249;SDS011;109;19.806;-70.704;2022-12-05T06:09:36;11.27;;;3.17;;
249;SDS011;109;19.806;-70.704;2022-12-05T06:12:02;9.10;;;3.13;;
249;SDS011;109;19.806;-70.704;2022-12-05T06:14:42;9.30;;;2.60;;
249;SDS011;109;19.806;-70.704;2022-12-05T06:17:08;9.50;;;2.77;;
249;SDS011;109;19.806;-70.704;2022-12-05T06:19:50;14.90;;;3.07;;
249;SDS011;109;19.806;-70.704;2022-12-05T06:22:16;14.70;;;4.20;;
249;SDS011;109;19.806;-70.704;2022-12-05T06:24:56;18.73;;;3.60;;
249;SDS011;109;19.806;-70.704;2022-12-05T06:27:23;11.47;;;3.53;;
249;SDS011;109;19.806;-70.704;2022-12-05T06:30:03;16.67;;;4.17;;
249;SDS011;109;19.806;-70.704;2022-12-05T06:32:30;11.53;;;3.17;;
249;SDS011;109;19.806;-70.704;2022-12-05T06:35:11;14.67;;;3.63;;
249;SDS011;109;19.806;-70.704;2022-12-05T06:37:51;8.83;;;3.27;;
249;SDS011;109;19.806;-70.704;2022-12-05T06:40:24;9.87;;;3.20;;
249;SDS011;109;19.806;-70.704;2022-12-05T06:43:04;14.20;;;3.87;;
249;SDS011;109;19.806;-70.704;2022-12-05T06:45:30;8.83;;;3.30;;
249;SDS011;109;19.806;-70.704;2022-12-05T06:48:10;12.57;;;3.10;;
249;SDS011;109;19.806;-70.704;2022-12-05T06:50:36;22.47;;;3.50;;
249;SDS011;109;19.806;-70.704;2022-12-05T06:53:17;10.20;;;2.83;;
249;SDS011;109;19.806;-70.704;2022-12-05T06:55:54;10.50;;;3.47;;
249;SDS011;109;19.806;-70.704;2022-12-05T06:58:48;7.50;;;3.00;;
249;SDS011;109;19.806;-70.704;2022-12-05T07:01:23;11.10;;;3.10;;
249;SDS011;109;19.806;-70.704;2022-12-05T07:04:20;12.07;;;3.97;;
249;SDS011;109;19.806;-70.704;2022-12-05T07:07:01;11.77;;;3.57;;
249;SDS011;109;19.806;-70.704;2022-12-05T07:09:42;10.60;;;3.33;;
249;SDS011;109;19.806;-70.704;2022-12-05T07:12:19;5.57;;;2.67;;
249;SDS011;109;19.806;-70.704;2022-12-05T07:14:59;12.27;;;3.23;;
249;SDS011;109;19.806;-70.704;2022-12-05T07:17:26;7.30;;;2.53;;
249;SDS011;109;19.806;-70.704;2022-12-05T07:20:06;11.33;;;3.10;;
249;SDS011;109;19.806;-70.704;2022-12-05T07:22:35;10.00;;;2.87;;
249;SDS011;109;19.806;-70.704;2022-12-05T07:25:17;8.03;;;2.80;;
249;SDS011;109;19.806;-70.704;2022-12-05T07:27:57;12.50;;;3.07;;
249;SDS011;109;19.806;-70.704;2022-12-05T07:30:23;7.30;;;2.80;;
249;SDS011;109;19.806;-70.704;2022-12-05T07:33:10;10.77;;;2.90;;
249;SDS011;109;19.806;-70.704;2022-12-05T07:35:44;6.93;;;2.97;;
249;SDS011;109;19.806;-70.704;2022-12-05T07:38:24;11.83;;;3.17;;
249;SDS011;109;19.806;-70.704;2022-12-05T07:40:50;11.03;;;3.23;;
249;SDS011;109;19.806;-70.704;2022-12-05T07:43:31;9.70;;;2.53;;
249;SDS011;109;19.806;-70.704;2022-12-05T07:46:01;11.27;;;2.87;;
249;SDS011;109;19.806;-70.704;2022-12-05T07:48:46;12.60;;;2.70;;
249;SDS011;109;19.806;-70.704;2022-12-05T07:51:12;5.47;;;2.40;;
249;SDS011;109;19.806;-70.704;2022-12-05T07:53:52;13.23;;;3.40;;
249;SDS011;109;19.806;-70.704;2022-12-05T07:56:18;13.57;;;2.90;;
249;SDS011;109;19.806;-70.704;2022-12-05T07:58:59;8.53;;;2.80;;
249;SDS011;109;19.806;-70.704;2022-12-05T08:01:26;9.90;;;2.60;;
249;SDS011;109;19.806;-70.704;2022-12-05T08:04:14;11.30;;;3.10;;
249;SDS011;109;19.806;-70.704;2022-12-05T08:06:54;8.50;;;2.80;;
249;SDS011;109;19.806;-70.704;2022-12-05T08:09:41;7.83;;;2.47;;
249;SDS011;109;19.806;-70.704;2022-12-05T08:12:14;7.30;;;2.40;;
249;SDS011;109;19.806;-70.704;2022-12-05T08:14:55;6.43;;;2.80;;
249;SDS011;109;19.806;-70.704;2022-12-05T08:17:21;12.73;;;2.93;;
249;SDS011;109;19.806;-70.704;2022-12-05T08:20:01;6.47;;;2.63;;
249;SDS011;109;19.806;-70.704;2022-12-05T08:22:27;11.20;;;2.80;;
249;SDS011;109;19.806;-70.704;2022-12-05T08:25:07;11.50;;;2.87;;
249;SDS011;109;19.806;-70.704;2022-12-05T08:27:47;16.80;;;3.30;;
249;SDS011;109;19.806;-70.704;2022-12-05T08:30:13;10.87;;;2.73;;
249;SDS011;109;19.806;-70.704;2022-12-05T08:32:54;12.83;;;2.80;;
249;SDS011;109;19.806;-70.704;2022-12-05T08:35:36;14.27;;;2.90;;
249;SDS011;109;19.806;-70.704;2022-12-05T08:39:09;14.23;;;3.23;;
249;SDS011;109;19.806;-70.704;2022-12-05T08:41:50;13.40;;;3.33;;
249;SDS011;109;19.806;-70.704;2022-12-05T08:44:30;9.73;;;3.10;;
249;SDS011;109;19.806;-70.704;2022-12-05T08:46:57;8.23;;;2.83;;
249;SDS011;109;19.806;-70.704;2022-12-05T08:49:37;13.23;;;3.40;;
249;SDS011;109;19.806;-70.704;2022-12-05T08:52:03;10.17;;;2.80;;
249;SDS011;109;19.806;-70.704;2022-12-05T08:54:43;10.90;;;3.40;;
249;SDS011;109;19.806;-70.704;2022-12-05T08:57:09;11.07;;;3.10;;
249;SDS011;109;19.806;-70.704;2022-12-05T08:59:56;12.17;;;4.00;;
249;SDS011;109;19.806;-70.704;2022-12-05T09:02:30;10.60;;;3.80;;
249;SDS011;109;19.806;-70.704;2022-12-05T09:05:18;11.63;;;3.33;;
249;SDS011;109;19.806;-70.704;2022-12-05T09:07:58;8.73;;;3.23;;
249;SDS011;109;19.806;-70.704;2022-12-05T09:10:25;6.13;;;2.87;;
249;SDS011;109;19.806;-70.704;2022-12-05T09:13:05;14.93;;;3.17;;
249;SDS011;109;19.806;-70.704;2022-12-05T09:15:31;8.03;;;3.40;;
249;SDS011;109;19.806;-70.704;2022-12-05T09:18:11;14.73;;;2.70;;
249;SDS011;109;19.806;-70.704;2022-12-05T09:20:39;13.50;;;2.83;;
249;SDS011;109;19.806;-70.704;2022-12-05T09:23:20;12.17;;;3.20;;
249;SDS011;109;19.806;-70.704;2022-12-05T09:25:53;13.17;;;3.37;;
249;SDS011;109;19.806;-70.704;2022-12-05T09:28:36;13.33;;;3.63;;
249;SDS011;109;19.806;-70.704;2022-12-05T09:31:04;12.23;;;3.20;;
249;SDS011;109;19.806;-70.704;2022-12-05T09:33:53;14.10;;;3.40;;
249;SDS011;109;19.806;-70.704;2022-12-05T09:36:28;12.80;;;3.10;;
249;SDS011;109;19.806;-70.704;2022-12-05T09:39:10;12.20;;;4.03;;
249;SDS011;109;19.806;-70.704;2022-12-05T09:41:46;11.30;;;3.20;;
249;SDS011;109;19.806;-70.704;2022-12-05T09:50:47;9.57;;;3.50;;
249;SDS011;109;19.806;-70.704;2022-12-05T09:53:41;8.33;;;3.00;;
249;SDS011;109;19.806;-70.704;2022-12-05T09:56:24;13.60;;;4.30;;
249;SDS011;109;19.806;-70.704;2022-12-05T09:59:11;12.23;;;3.40;;
249;SDS011;109;19.806;-70.704;2022-12-05T10:02:03;15.20;;;3.40;;
249;SDS011;109;19.806;-70.704;2022-12-05T10:06:20;10.23;;;3.23;;
249;SDS011;109;19.806;-70.704;2022-12-05T10:17:49;18.80;;;3.70;;
249;SDS011;109;19.806;-70.704;2022-12-05T10:20:34;10.20;;;3.63;;
249;SDS011;109;19.806;-70.704;2022-12-05T10:23:24;13.53;;;3.90;;
249;SDS011;109;19.806;-70.704;2022-12-05T10:26:09;12.07;;;4.83;;
249;SDS011;109;19.806;-70.704;2022-12-05T10:31:31;10.30;;;3.20;;
249;SDS011;109;19.806;-70.704;2022-12-05T10:37:17;9.33;;;3.10;;
249;SDS011;109;19.806;-70.704;2022-12-05T10:39:56;7.20;;;3.83;;
249;SDS011;109;19.806;-70.704;2022-12-05T10:42:36;12.20;;;3.50;;
249;SDS011;109;19.806;-70.704;2022-12-05T10:45:04;17.03;;;3.77;;
249;SDS011;109;19.806;-70.704;2022-12-05T10:47:46;11.70;;;3.70;;
249;SDS011;109;19.806;-70.704;2022-12-05T10:53:12;14.70;;;3.63;;
249;SDS011;109;19.806;-70.704;2022-12-05T10:55:55;16.57;;;3.67;;
249;SDS011;109;19.806;-70.704;2022-12-05T10:58:25;11.40;;;3.00;;
249;SDS011;109;19.806;-70.704;2022-12-05T11:00:57;10.67;;;3.57;;
249;SDS011;109;19.806;-70.704;2022-12-05T11:03:33;21.50;;;3.77;;
249;SDS011;109;19.806;-70.704;2022-12-05T11:06:14;14.23;;;3.90;;
249;SDS011;109;19.806;-70.704;2022-12-05T11:08:50;14.73;;;3.70;;
249;SDS011;109;19.806;-70.704;2022-12-05T11:11:22;10.30;;;3.20;;
249;SDS011;109;19.806;-70.704;2022-12-05T11:13:57;18.33;;;4.50;;
249;SDS011;109;19.806;-70.704;2022-12-05T11:16:32;25.83;;;5.23;;
249;SDS011;109;19.806;-70.704;2022-12-05T11:21:50;24.53;;;5.33;;
249;SDS011;109;19.806;-70.704;2022-12-05T11:24:21;17.17;;;5.23;;
249;SDS011;109;19.806;-70.704;2022-12-05T11:26:50;20.07;;;5.13;;
249;SDS011;109;19.806;-70.704;2022-12-05T11:29:35;23.87;;;7.77;;
249;SDS011;109;19.806;-70.704;2022-12-05T11:32:04;23.77;;;8.60;;
249;SDS011;109;19.806;-70.704;2022-12-05T11:34:44;27.33;;;9.03;;
249;SDS011;109;19.806;-70.704;2022-12-05T11:37:23;13.83;;;5.17;;
249;SDS011;109;19.806;-70.704;2022-12-05T11:39:53;14.80;;;5.70;;
249;SDS011;109;19.806;-70.704;2022-12-05T11:45:49;34.80;;;7.47;;
249;SDS011;109;19.806;-70.704;2022-12-05T11:59:59;15.53;;;5.30;;
249;SDS011;109;19.806;-70.704;2022-12-05T12:08:07;15.37;;;4.50;;
249;SDS011;109;19.806;-70.704;2022-12-05T12:22:11;16.20;;;5.37;;
249;SDS011;109;19.806;-70.704;2022-12-05T12:43:56;7.93;;;3.80;;
249;SDS011;109;19.806;-70.704;2022-12-05T12:47:00;7.23;;;3.80;;
249;SDS011;109;19.806;-70.704;2022-12-05T12:49:51;10.47;;;3.77;;
249;SDS011;109;19.806;-70.704;2022-12-05T12:56:08;8.03;;;3.27;;
249;SDS011;109;19.806;-70.704;2022-12-05T13:06:48;8.83;;;3.70;;
249;SDS011;109;19.806;-70.704;2022-12-05T13:09:30;9.80;;;2.70;;
249;SDS011;109;19.806;-70.704;2022-12-05T13:12:04;7.00;;;2.80;;
249;SDS011;109;19.806;-70.704;2022-12-05T13:14:35;6.97;;;2.80;;
249;SDS011;109;19.806;-70.704;2022-12-05T13:17:05;11.87;;;3.30;;
249;SDS011;109;19.806;-70.704;2022-12-05T13:19:41;7.43;;;2.70;;
249;SDS011;109;19.806;-70.704;2022-12-05T13:22:11;9.00;;;2.60;;
249;SDS011;109;19.806;-70.704;2022-12-05T13:24:38;5.03;;;2.23;;
249;SDS011;109;19.806;-70.704;2022-12-05T13:27:08;7.77;;;2.93;;
249;SDS011;109;19.806;-70.704;2022-12-05T13:29:46;7.63;;;2.73;;
249;SDS011;109;19.806;-70.704;2022-12-05T13:35:18;9.57;;;3.00;;
249;SDS011;109;19.806;-70.704;2022-12-05T13:38:18;7.40;;;2.87;;
249;SDS011;109;19.806;-70.704;2022-12-05T13:41:14;10.50;;;3.10;;
249;SDS011;109;19.806;-70.704;2022-12-05T13:43:59;9.20;;;3.10;;
249;SDS011;109;19.806;-70.704;2022-12-05T13:46:28;9.97;;;3.40;;
249;SDS011;109;19.806;-70.704;2022-12-05T13:49:03;9.77;;;3.30;;
249;SDS011;109;19.806;-70.704;2022-12-05T13:51:38;21.73;;;3.50;;
249;SDS011;109;19.806;-70.704;2022-12-05T13:54:24;10.40;;;3.00;;
249;SDS011;109;19.806;-70.704;2022-12-05T13:56:54;13.47;;;2.90;;
249;SDS011;109;19.806;-70.704;2022-12-05T14:07:45;8.27;;;3.30;;
249;SDS011;109;19.806;-70.704;2022-12-05T14:10:19;8.50;;;3.00;;
249;SDS011;109;19.806;-70.704;2022-12-05T14:15:28;17.23;;;3.17;;
249;SDS011;109;19.806;-70.704;2022-12-05T14:26:06;10.17;;;3.13;;
249;SDS011;109;19.806;-70.704;2022-12-05T14:28:48;8.33;;;3.23;;
249;SDS011;109;19.806;-70.704;2022-12-05T14:34:46;10.03;;;2.77;;
249;SDS011;109;19.806;-70.704;2022-12-05T14:37:41;6.63;;;2.60;;
249;SDS011;109;19.806;-70.704;2022-12-05T14:43:01;17.40;;;3.43;;
249;SDS011;109;19.806;-70.704;2022-12-05T14:45:43;11.93;;;3.27;;
249;SDS011;109;19.806;-70.704;2022-12-05T14:51:01;9.03;;;2.80;;
249;SDS011;109;19.806;-70.704;2022-12-05T14:53:48;9.23;;;3.10;;
249;SDS011;109;19.806;-70.704;2022-12-05T14:56:16;8.23;;;2.53;;
249;SDS011;109;19.806;-70.704;2022-12-05T14:58:58;14.97;;;2.93;;
249;SDS011;109;19.806;-70.704;2022-12-05T15:01:34;12.93;;;2.60;;
249;SDS011;109;19.806;-70.704;2022-12-05T15:04:19;9.13;;;2.60;;
249;SDS011;109;19.806;-70.704;2022-12-05T15:07:11;12.10;;;3.07;;
249;SDS011;109;19.806;-70.704;2022-12-05T15:09:53;13.47;;;3.10;;
249;SDS011;109;19.806;-70.704;2022-12-05T15:15:12;16.03;;;4.50;;
249;SDS011;109;19.806;-70.704;2022-12-05T15:17:45;10.67;;;3.33;;
249;SDS011;109;19.806;-70.704;2022-12-05T15:22:58;29.10;;;4.27;;
249;SDS011;109;19.806;-70.704;2022-12-05T15:25:27;15.40;;;3.73;;
249;SDS011;109;19.806;-70.704;2022-12-05T15:28:05;31.10;;;4.83;;
249;SDS011;109;19.806;-70.704;2022-12-05T15:30:45;27.70;;;5.23;;
249;SDS011;109;19.806;-70.704;2022-12-05T15:33:21;19.10;;;4.43;;
249;SDS011;109;19.806;-70.704;2022-12-05T15:35:49;25.87;;;3.57;;
249;SDS011;109;19.806;-70.704;2022-12-05T15:38:28;11.60;;;3.00;;
249;SDS011;109;19.806;-70.704;2022-12-05T15:40:57;15.30;;;3.63;;
249;SDS011;109;19.806;-70.704;2022-12-05T15:43:30;25.83;;;5.73;;
249;SDS011;109;19.806;-70.704;2022-12-05T15:48:54;26.40;;;4.97;;
249;SDS011;109;19.806;-70.704;2022-12-05T15:51:35;25.17;;;4.70;;
249;SDS011;109;19.806;-70.704;2022-12-05T15:54:07;24.47;;;3.83;;
249;SDS011;109;19.806;-70.704;2022-12-05T15:56:46;18.73;;;3.70;;
249;SDS011;109;19.806;-70.704;2022-12-05T15:59:24;11.00;;;3.40;;
249;SDS011;109;19.806;-70.704;2022-12-05T16:02:00;29.70;;;4.80;;
249;SDS011;109;19.806;-70.704;2022-12-05T16:04:55;26.87;;;4.83;;
249;SDS011;109;19.806;-70.704;2022-12-05T16:07:26;14.80;;;3.67;;
249;SDS011;109;19.806;-70.704;2022-12-05T16:09:55;14.07;;;3.00;;
249;SDS011;109;19.806;-70.704;2022-12-05T16:15:14;18.93;;;4.13;;
249;SDS011;109;19.806;-70.704;2022-12-05T16:17:53;17.23;;;3.70;;
249;SDS011;109;19.806;-70.704;2022-12-05T16:20:22;16.30;;;4.20;;
249;SDS011;109;19.806;-70.704;2022-12-05T16:23:21;18.80;;;3.70;;
249;SDS011;109;19.806;-70.704;2022-12-05T16:28:57;21.43;;;3.67;;
249;SDS011;109;19.806;-70.704;2022-12-05T16:31:25;11.40;;;3.70;;
249;SDS011;109;19.806;-70.704;2022-12-05T16:34:02;11.90;;;3.27;;
249;SDS011;109;19.806;-70.704;2022-12-05T16:36:31;28.13;;;4.10;;
249;SDS011;109;19.806;-70.704;2022-12-05T16:39:05;25.20;;;4.57;;
249;SDS011;109;19.806;-70.704;2022-12-05T16:41:38;22.10;;;4.40;;
249;SDS011;109;19.806;-70.704;2022-12-05T16:46:57;16.57;;;2.97;;
249;SDS011;109;19.806;-70.704;2022-12-05T16:52:01;17.00;;;3.20;;
249;SDS011;109;19.806;-70.704;2022-12-05T16:54:39;11.43;;;3.10;;
249;SDS011;109;19.806;-70.704;2022-12-05T16:57:07;15.80;;;3.20;;
249;SDS011;109;19.806;-70.704;2022-12-05T16:59:37;32.03;;;5.20;;
249;SDS011;109;19.806;-70.704;2022-12-05T17:02:12;20.50;;;3.43;;
249;SDS011;109;19.806;-70.704;2022-12-05T17:04:40;28.20;;;4.23;;
249;SDS011;109;19.806;-70.704;2022-12-05T17:07:07;14.03;;;3.10;;
249;SDS011;109;19.806;-70.704;2022-12-05T17:09:33;13.57;;;3.70;;
249;SDS011;109;19.806;-70.704;2022-12-05T17:12:04;17.80;;;6.13;;
249;SDS011;109;19.806;-70.704;2022-12-05T17:14:37;21.70;;;4.10;;
249;SDS011;109;19.806;-70.704;2022-12-05T17:17:04;18.73;;;3.53;;
249;SDS011;109;19.806;-70.704;2022-12-05T17:19:38;27.93;;;5.70;;
249;SDS011;109;19.806;-70.704;2022-12-05T17:22:05;20.73;;;3.47;;
249;SDS011;109;19.806;-70.704;2022-12-05T17:24:32;25.00;;;3.60;;
249;SDS011;109;19.806;-70.704;2022-12-05T17:26:58;14.37;;;3.30;;
249;SDS011;109;19.806;-70.704;2022-12-05T17:29:25;38.77;;;4.30;;
249;SDS011;109;19.806;-70.704;2022-12-05T17:31:52;31.27;;;5.00;;
249;SDS011;109;19.806;-70.704;2022-12-05T17:34:19;32.27;;;5.20;;
249;SDS011;109;19.806;-70.704;2022-12-05T17:36:45;19.13;;;3.60;;
249;SDS011;109;19.806;-70.704;2022-12-05T17:39:12;15.40;;;3.47;;
249;SDS011;109;19.806;-70.704;2022-12-05T17:41:38;16.50;;;3.10;;
249;SDS011;109;19.806;-70.704;2022-12-05T17:44:05;17.47;;;3.10;;
249;SDS011;109;19.806;-70.704;2022-12-05T17:46:31;17.17;;;3.50;;
249;SDS011;109;19.806;-70.704;2022-12-05T17:48:58;18.87;;;3.37;;
249;SDS011;109;19.806;-70.704;2022-12-05T17:51:24;12.07;;;3.40;;
249;SDS011;109;19.806;-70.704;2022-12-05T17:53:51;24.80;;;3.37;;
249;SDS011;109;19.806;-70.704;2022-12-05T17:56:19;37.13;;;4.60;;
249;SDS011;109;19.806;-70.704;2022-12-05T17:58:46;22.83;;;3.63;;
249;SDS011;109;19.806;-70.704;2022-12-05T18:01:13;20.70;;;4.17;;
249;SDS011;109;19.806;-70.704;2022-12-05T18:03:41;42.93;;;6.10;;
249;SDS011;109;19.806;-70.704;2022-12-05T18:06:08;28.67;;;4.33;;
249;SDS011;109;19.806;-70.704;2022-12-05T18:08:35;15.23;;;3.30;;
249;SDS011;109;19.806;-70.704;2022-12-05T18:11:04;37.90;;;5.40;;
249;SDS011;109;19.806;-70.704;2022-12-05T18:13:31;21.70;;;3.80;;
249;SDS011;109;19.806;-70.704;2022-12-05T18:15:58;17.80;;;3.37;;
249;SDS011;109;19.806;-70.704;2022-12-05T18:18:25;25.97;;;3.60;;
249;SDS011;109;19.806;-70.704;2022-12-05T18:21:07;30.93;;;4.40;;
249;SDS011;109;19.806;-70.704;2022-12-05T18:23:36;35.70;;;5.30;;
249;SDS011;109;19.806;-70.704;2022-12-05T18:26:04;29.23;;;3.83;;
249;SDS011;109;19.806;-70.704;2022-12-05T18:28:33;28.07;;;4.50;;
249;SDS011;109;19.806;-70.704;2022-12-05T18:31:02;18.97;;;2.97;;
249;SDS011;109;19.806;-70.704;2022-12-05T18:33:36;45.93;;;4.30;;
249;SDS011;109;19.806;-70.704;2022-12-05T18:36:08;24.97;;;3.80;;
249;SDS011;109;19.806;-70.704;2022-12-05T18:38:36;23.10;;;3.30;;
249;SDS011;109;19.806;-70.704;2022-12-05T18:41:04;28.93;;;4.33;;
249;SDS011;109;19.806;-70.704;2022-12-05T18:43:32;23.13;;;3.90;;
249;SDS011;109;19.806;-70.704;2022-12-05T18:45:59;32.10;;;4.60;;
249;SDS011;109;19.806;-70.704;2022-12-05T18:48:31;33.67;;;5.23;;
249;SDS011;109;19.806;-70.704;2022-12-05T18:53:37;28.17;;;3.93;;
249;SDS011;109;19.806;-70.704;2022-12-05T18:56:07;26.47;;;3.60;;
249;SDS011;109;19.806;-70.704;2022-12-05T18:58:35;15.70;;;2.93;;
249;SDS011;109;19.806;-70.704;2022-12-05T19:01:04;13.40;;;3.27;;